sensor_id;sensor_type;location;lat;lon;timestamp;P1;durP1;ratioP1;P2;durP2;ratioP2
21837;SDS011;11081;45.946;6.140;2023-09-30T00:01:23;13.00;;;5.38;;
21837;SDS011;11081;45.946;6.140;2023-09-30T00:03:51;11.10;;;4.95;;
21837;SDS011;11081;45.946;6.140;2023-09-30T00:06:19;10.93;;;4.38;;
21837;SDS011;11081;45.946;6.140;2023-09-30T00:08:48;13.90;;;5.10;;
21837;SDS011;11081;45.946;6.140;2023-09-30T00:11:16;12.65;;;5.05;;
21837;SDS011;11081;45.946;6.140;2023-09-30T00:13:45;15.68;;;4.72;;
21837;SDS011;11081;45.946;6.140;2023-09-30T00:16:13;15.60;;;5.45;;
21837;SDS011;11081;45.946;6.140;2023-09-30T00:18:43;9.43;;;4.32;;
21837;SDS011;11081;45.946;6.140;2023-09-30T00:21:12;12.82;;;5.18;;
21837;SDS011;11081;45.946;6.140;2023-09-30T00:23:41;15.43;;;4.55;;
21837;SDS011;11081;45.946;6.140;2023-09-30T00:26:10;10.85;;;4.78;;
21837;SDS011;11081;45.946;6.140;2023-09-30T00:28:42;10.07;;;4.57;;
21837;SDS011;11081;45.946;6.140;2023-09-30T00:31:10;11.80;;;4.80;;
21837;SDS011;11081;45.946;6.140;2023-09-30T00:33:39;12.40;;;5.45;;
21837;SDS011;11081;45.946;6.140;2023-09-30T00:36:07;7.88;;;4.25;;
21837;SDS011;11081;45.946;6.140;2023-09-30T00:38:38;10.73;;;4.22;;
21837;SDS011;11081;45.946;6.140;2023-09-30T00:41:06;10.75;;;4.85;;
21837;SDS011;11081;45.946;6.140;2023-09-30T00:43:35;10.82;;;4.22;;
21837;SDS011;11081;45.946;6.140;2023-09-30T00:46:06;11.20;;;5.05;;
21837;SDS011;11081;45.946;6.140;2023-09-30T00:48:43;11.93;;;5.47;;
21837;SDS011;11081;45.946;6.140;2023-09-30T00:51:12;8.93;;;4.55;;
21837;SDS011;11081;45.946;6.140;2023-09-30T00:53:41;10.90;;;4.70;;
21837;SDS011;11081;45.946;6.140;2023-09-30T00:56:09;11.60;;;4.78;;
21837;SDS011;11081;45.946;6.140;2023-09-30T00:58:39;13.63;;;5.40;;
21837;SDS011;11081;45.946;6.140;2023-09-30T01:01:08;15.20;;;5.47;;
21837;SDS011;11081;45.946;6.140;2023-09-30T01:03:37;12.48;;;5.22;;
21837;SDS011;11081;45.946;6.140;2023-09-30T01:06:05;12.63;;;5.75;;
21837;SDS011;11081;45.946;6.140;2023-09-30T01:08:33;12.43;;;5.32;;
21837;SDS011;11081;45.946;6.140;2023-09-30T01:11:01;11.13;;;5.45;;
21837;SDS011;11081;45.946;6.140;2023-09-30T01:13:32;14.68;;;5.85;;
21837;SDS011;11081;45.946;6.140;2023-09-30T01:16:04;12.98;;;6.03;;
21837;SDS011;11081;45.946;6.140;2023-09-30T01:18:32;14.98;;;5.78;;
21837;SDS011;11081;45.946;6.140;2023-09-30T01:21:01;14.40;;;5.63;;
21837;SDS011;11081;45.946;6.140;2023-09-30T01:23:33;15.27;;;5.45;;
21837;SDS011;11081;45.946;6.140;2023-09-30T01:26:02;13.15;;;5.95;;
21837;SDS011;11081;45.946;6.140;2023-09-30T01:28:31;12.65;;;5.57;;
21837;SDS011;11081;45.946;6.140;2023-09-30T01:31:00;15.30;;;6.55;;
21837;SDS011;11081;45.946;6.140;2023-09-30T01:33:28;14.02;;;6.32;;
21837;SDS011;11081;45.946;6.140;2023-09-30T01:35:56;16.73;;;5.32;;
21837;SDS011;11081;45.946;6.140;2023-09-30T01:38:25;13.57;;;6.43;;
21837;SDS011;11081;45.946;6.140;2023-09-30T01:40:54;17.15;;;5.80;;
21837;SDS011;11081;45.946;6.140;2023-09-30T01:43:26;16.88;;;6.40;;
21837;SDS011;11081;45.946;6.140;2023-09-30T01:45:54;13.98;;;5.82;;
21837;SDS011;11081;45.946;6.140;2023-09-30T01:48:23;15.80;;;6.13;;
21837;SDS011;11081;45.946;6.140;2023-09-30T01:50:51;17.23;;;6.28;;
21837;SDS011;11081;45.946;6.140;2023-09-30T01:53:19;14.07;;;6.05;;
21837;SDS011;11081;45.946;6.140;2023-09-30T01:55:47;13.55;;;6.05;;
21837;SDS011;11081;45.946;6.140;2023-09-30T01:58:16;12.13;;;5.95;;
21837;SDS011;11081;45.946;6.140;2023-09-30T02:00:44;15.80;;;6.47;;
21837;SDS011;11081;45.946;6.140;2023-09-30T02:03:12;13.30;;;6.18;;
21837;SDS011;11081;45.946;6.140;2023-09-30T02:05:41;16.02;;;6.65;;
21837;SDS011;11081;45.946;6.140;2023-09-30T02:08:09;15.13;;;6.32;;
21837;SDS011;11081;45.946;6.140;2023-09-30T02:10:37;17.50;;;6.85;;
21837;SDS011;11081;45.946;6.140;2023-09-30T02:13:05;13.52;;;5.82;;
21837;SDS011;11081;45.946;6.140;2023-09-30T02:15:35;16.95;;;6.15;;
21837;SDS011;11081;45.946;6.140;2023-09-30T02:18:03;15.88;;;6.72;;
21837;SDS011;11081;45.946;6.140;2023-09-30T02:20:31;14.38;;;6.22;;
21837;SDS011;11081;45.946;6.140;2023-09-30T02:22:59;16.67;;;6.65;;
21837;SDS011;11081;45.946;6.140;2023-09-30T02:25:29;15.05;;;6.82;;
21837;SDS011;11081;45.946;6.140;2023-09-30T02:27:58;15.00;;;6.65;;
21837;SDS011;11081;45.946;6.140;2023-09-30T02:30:26;17.45;;;7.15;;
21837;SDS011;11081;45.946;6.140;2023-09-30T02:32:56;16.08;;;7.05;;
21837;SDS011;11081;45.946;6.140;2023-09-30T02:35:25;14.20;;;6.30;;
21837;SDS011;11081;45.946;6.140;2023-09-30T02:37:53;14.85;;;5.80;;
21837;SDS011;11081;45.946;6.140;2023-09-30T02:40:21;18.65;;;7.10;;
21837;SDS011;11081;45.946;6.140;2023-09-30T02:42:51;14.50;;;6.68;;
21837;SDS011;11081;45.946;6.140;2023-09-30T02:45:19;17.58;;;6.72;;
21837;SDS011;11081;45.946;6.140;2023-09-30T02:47:47;14.63;;;6.03;;
21837;SDS011;11081;45.946;6.140;2023-09-30T02:50:16;13.63;;;6.20;;
21837;SDS011;11081;45.946;6.140;2023-09-30T02:52:44;14.73;;;6.55;;
21837;SDS011;11081;45.946;6.140;2023-09-30T02:55:12;15.23;;;6.47;;
21837;SDS011;11081;45.946;6.140;2023-09-30T02:57:43;15.95;;;7.20;;
21837;SDS011;11081;45.946;6.140;2023-09-30T03:00:13;16.35;;;6.78;;
21837;SDS011;11081;45.946;6.140;2023-09-30T03:02:51;18.23;;;6.82;;
21837;SDS011;11081;45.946;6.140;2023-09-30T03:05:21;14.63;;;6.68;;
21837;SDS011;11081;45.946;6.140;2023-09-30T03:07:50;18.65;;;7.45;;
21837;SDS011;11081;45.946;6.140;2023-09-30T03:10:18;14.77;;;6.65;;
21837;SDS011;11081;45.946;6.140;2023-09-30T03:12:50;14.32;;;6.63;;
21837;SDS011;11081;45.946;6.140;2023-09-30T03:15:18;19.35;;;6.18;;
21837;SDS011;11081;45.946;6.140;2023-09-30T03:17:47;15.45;;;6.07;;
21837;SDS011;11081;45.946;6.140;2023-09-30T03:20:20;14.48;;;6.03;;
21837;SDS011;11081;45.946;6.140;2023-09-30T03:22:51;18.63;;;6.93;;
21837;SDS011;11081;45.946;6.140;2023-09-30T03:25:20;17.40;;;6.60;;
21837;SDS011;11081;45.946;6.140;2023-09-30T03:27:48;15.02;;;6.13;;
21837;SDS011;11081;45.946;6.140;2023-09-30T03:30:17;12.40;;;6.07;;
21837;SDS011;11081;45.946;6.140;2023-09-30T03:32:47;13.93;;;6.57;;
21837;SDS011;11081;45.946;6.140;2023-09-30T03:35:15;19.92;;;6.75;;
21837;SDS011;11081;45.946;6.140;2023-09-30T03:37:46;13.82;;;5.43;;
21837;SDS011;11081;45.946;6.140;2023-09-30T03:40:14;18.10;;;5.75;;
21837;SDS011;11081;45.946;6.140;2023-09-30T03:42:46;14.98;;;5.82;;
21837;SDS011;11081;45.946;6.140;2023-09-30T03:45:16;16.13;;;6.03;;
21837;SDS011;11081;45.946;6.140;2023-09-30T03:47:45;13.48;;;5.38;;
21837;SDS011;11081;45.946;6.140;2023-09-30T03:50:14;14.18;;;6.07;;
21837;SDS011;11081;45.946;6.140;2023-09-30T03:52:43;20.10;;;6.60;;
21837;SDS011;11081;45.946;6.140;2023-09-30T03:55:15;15.73;;;6.45;;
21837;SDS011;11081;45.946;6.140;2023-09-30T03:57:47;10.40;;;4.63;;
21837;SDS011;11081;45.946;6.140;2023-09-30T04:00:16;11.77;;;5.45;;
21837;SDS011;11081;45.946;6.140;2023-09-30T04:02:47;10.40;;;4.57;;
21837;SDS011;11081;45.946;6.140;2023-09-30T04:05:17;13.15;;;4.97;;
21837;SDS011;11081;45.946;6.140;2023-09-30T04:07:45;13.02;;;5.05;;
21837;SDS011;11081;45.946;6.140;2023-09-30T04:10:15;13.77;;;5.13;;
21837;SDS011;11081;45.946;6.140;2023-09-30T04:12:47;12.32;;;5.28;;
21837;SDS011;11081;45.946;6.140;2023-09-30T04:15:15;13.05;;;5.57;;
21837;SDS011;11081;45.946;6.140;2023-09-30T04:17:43;13.27;;;5.57;;
21837;SDS011;11081;45.946;6.140;2023-09-30T04:20:11;12.95;;;4.75;;
21837;SDS011;11081;45.946;6.140;2023-09-30T04:22:47;14.88;;;5.03;;
21837;SDS011;11081;45.946;6.140;2023-09-30T04:25:18;22.80;;;5.70;;
21837;SDS011;11081;45.946;6.140;2023-09-30T04:27:47;11.20;;;4.20;;
21837;SDS011;11081;45.946;6.140;2023-09-30T04:30:15;13.15;;;4.95;;
21837;SDS011;11081;45.946;6.140;2023-09-30T04:32:44;11.80;;;4.50;;
21837;SDS011;11081;45.946;6.140;2023-09-30T04:35:13;10.25;;;4.53;;
21837;SDS011;11081;45.946;6.140;2023-09-30T04:37:41;9.35;;;3.97;;
21837;SDS011;11081;45.946;6.140;2023-09-30T04:40:10;11.50;;;3.97;;
21837;SDS011;11081;45.946;6.140;2023-09-30T04:42:44;9.50;;;4.15;;
21837;SDS011;11081;45.946;6.140;2023-09-30T04:45:13;11.23;;;4.00;;
21837;SDS011;11081;45.946;6.140;2023-09-30T04:47:43;8.15;;;3.58;;
21837;SDS011;11081;45.946;6.140;2023-09-30T04:50:12;11.27;;;4.45;;
21837;SDS011;11081;45.946;6.140;2023-09-30T04:52:43;11.18;;;4.82;;
21837;SDS011;11081;45.946;6.140;2023-09-30T04:55:12;10.98;;;4.85;;
21837;SDS011;11081;45.946;6.140;2023-09-30T04:57:44;10.80;;;4.70;;
21837;SDS011;11081;45.946;6.140;2023-09-30T05:00:15;11.48;;;4.10;;
21837;SDS011;11081;45.946;6.140;2023-09-30T05:02:44;12.20;;;4.45;;
21837;SDS011;11081;45.946;6.140;2023-09-30T05:05:13;13.48;;;4.28;;
21837;SDS011;11081;45.946;6.140;2023-09-30T05:07:42;10.93;;;3.55;;
21837;SDS011;11081;45.946;6.140;2023-09-30T05:10:10;8.07;;;3.35;;
21837;SDS011;11081;45.946;6.140;2023-09-30T05:12:43;11.10;;;4.22;;
21837;SDS011;11081;45.946;6.140;2023-09-30T05:15:14;7.95;;;3.60;;
21837;SDS011;11081;45.946;6.140;2023-09-30T05:17:44;11.40;;;4.03;;
21837;SDS011;11081;45.946;6.140;2023-09-30T05:20:12;10.82;;;4.00;;
21837;SDS011;11081;45.946;6.140;2023-09-30T05:22:43;11.75;;;3.90;;
21837;SDS011;11081;45.946;6.140;2023-09-30T05:25:12;10.07;;;3.70;;
21837;SDS011;11081;45.946;6.140;2023-09-30T05:27:44;10.48;;;3.83;;
21837;SDS011;11081;45.946;6.140;2023-09-30T05:30:14;9.32;;;4.30;;
21837;SDS011;11081;45.946;6.140;2023-09-30T05:32:43;9.88;;;4.05;;
21837;SDS011;11081;45.946;6.140;2023-09-30T05:35:12;13.40;;;3.85;;
21837;SDS011;11081;45.946;6.140;2023-09-30T05:37:43;9.05;;;4.10;;
21837;SDS011;11081;45.946;6.140;2023-09-30T05:40:12;13.23;;;5.00;;
21837;SDS011;11081;45.946;6.140;2023-09-30T05:42:51;9.10;;;3.60;;
21837;SDS011;11081;45.946;6.140;2023-09-30T05:45:19;12.15;;;4.35;;
21837;SDS011;11081;45.946;6.140;2023-09-30T05:47:49;12.68;;;5.15;;
21837;SDS011;11081;45.946;6.140;2023-09-30T05:50:19;10.20;;;4.45;;
21837;SDS011;11081;45.946;6.140;2023-09-30T05:52:51;10.57;;;4.63;;
21837;SDS011;11081;45.946;6.140;2023-09-30T05:55:20;12.45;;;4.30;;
21837;SDS011;11081;45.946;6.140;2023-09-30T05:57:49;9.60;;;4.75;;
21837;SDS011;11081;45.946;6.140;2023-09-30T06:00:19;9.82;;;4.40;;
21837;SDS011;11081;45.946;6.140;2023-09-30T06:02:55;11.50;;;4.55;;
21837;SDS011;11081;45.946;6.140;2023-09-30T06:05:23;13.55;;;4.35;;
21837;SDS011;11081;45.946;6.140;2023-09-30T06:07:52;11.75;;;4.47;;
21837;SDS011;11081;45.946;6.140;2023-09-30T06:10:21;14.50;;;4.70;;
21837;SDS011;11081;45.946;6.140;2023-09-30T06:12:51;9.18;;;4.60;;
21837;SDS011;11081;45.946;6.140;2023-09-30T06:15:22;13.45;;;4.90;;
21837;SDS011;11081;45.946;6.140;2023-09-30T06:17:53;10.13;;;4.18;;
21837;SDS011;11081;45.946;6.140;2023-09-30T06:20:22;10.18;;;3.97;;
21837;SDS011;11081;45.946;6.140;2023-09-30T06:22:53;8.93;;;3.92;;
21837;SDS011;11081;45.946;6.140;2023-09-30T06:25:22;9.80;;;4.10;;
21837;SDS011;11081;45.946;6.140;2023-09-30T06:27:53;11.05;;;3.90;;
21837;SDS011;11081;45.946;6.140;2023-09-30T06:30:22;11.18;;;4.20;;
21837;SDS011;11081;45.946;6.140;2023-09-30T06:32:56;9.48;;;3.92;;
21837;SDS011;11081;45.946;6.140;2023-09-30T06:35:26;11.73;;;4.20;;
21837;SDS011;11081;45.946;6.140;2023-09-30T06:37:56;9.40;;;4.32;;
21837;SDS011;11081;45.946;6.140;2023-09-30T06:40:24;12.32;;;4.00;;
21837;SDS011;11081;45.946;6.140;2023-09-30T06:42:53;13.85;;;4.47;;
21837;SDS011;11081;45.946;6.140;2023-09-30T06:45:21;10.98;;;4.45;;
21837;SDS011;11081;45.946;6.140;2023-09-30T06:47:49;14.55;;;4.90;;
21837;SDS011;11081;45.946;6.140;2023-09-30T06:50:17;9.02;;;4.40;;
21837;SDS011;11081;45.946;6.140;2023-09-30T06:52:48;9.82;;;3.92;;
21837;SDS011;11081;45.946;6.140;2023-09-30T06:55:17;12.70;;;4.72;;
21837;SDS011;11081;45.946;6.140;2023-09-30T06:57:45;11.10;;;4.68;;
21837;SDS011;11081;45.946;6.140;2023-09-30T07:00:15;16.08;;;4.97;;
21837;SDS011;11081;45.946;6.140;2023-09-30T07:02:43;16.25;;;4.10;;
21837;SDS011;11081;45.946;6.140;2023-09-30T07:05:13;10.50;;;4.47;;
21837;SDS011;11081;45.946;6.140;2023-09-30T07:07:42;13.07;;;4.18;;
21837;SDS011;11081;45.946;6.140;2023-09-30T07:10:11;14.45;;;4.38;;
21837;SDS011;11081;45.946;6.140;2023-09-30T07:12:39;11.82;;;3.97;;
21837;SDS011;11081;45.946;6.140;2023-09-30T07:15:07;9.23;;;4.47;;
21837;SDS011;11081;45.946;6.140;2023-09-30T07:17:37;12.77;;;4.40;;
21837;SDS011;11081;45.946;6.140;2023-09-30T07:20:09;12.68;;;4.47;;
21837;SDS011;11081;45.946;6.140;2023-09-30T07:22:37;12.50;;;5.05;;
21837;SDS011;11081;45.946;6.140;2023-09-30T07:25:08;11.90;;;4.40;;
21837;SDS011;11081;45.946;6.140;2023-09-30T07:27:36;10.48;;;4.03;;
21837;SDS011;11081;45.946;6.140;2023-09-30T07:30:05;10.68;;;4.50;;
21837;SDS011;11081;45.946;6.140;2023-09-30T07:32:33;10.70;;;4.05;;
21837;SDS011;11081;45.946;6.140;2023-09-30T07:35:03;14.70;;;4.15;;
21837;SDS011;11081;45.946;6.140;2023-09-30T07:37:31;11.20;;;4.50;;
21837;SDS011;11081;45.946;6.140;2023-09-30T07:40:00;9.73;;;4.00;;
21837;SDS011;11081;45.946;6.140;2023-09-30T07:42:28;10.77;;;4.47;;
21837;SDS011;11081;45.946;6.140;2023-09-30T07:44:56;14.48;;;5.03;;
21837;SDS011;11081;45.946;6.140;2023-09-30T07:47:24;17.35;;;5.13;;
21837;SDS011;11081;45.946;6.140;2023-09-30T07:49:52;11.13;;;4.03;;
21837;SDS011;11081;45.946;6.140;2023-09-30T07:52:21;12.05;;;4.40;;
21837;SDS011;11081;45.946;6.140;2023-09-30T07:54:49;10.52;;;4.60;;
21837;SDS011;11081;45.946;6.140;2023-09-30T07:57:17;14.20;;;4.55;;
21837;SDS011;11081;45.946;6.140;2023-09-30T07:59:47;11.98;;;4.88;;
21837;SDS011;11081;45.946;6.140;2023-09-30T08:02:15;13.90;;;5.00;;
21837;SDS011;11081;45.946;6.140;2023-09-30T08:04:44;9.73;;;4.78;;
21837;SDS011;11081;45.946;6.140;2023-09-30T08:07:12;10.68;;;4.65;;
21837;SDS011;11081;45.946;6.140;2023-09-30T08:09:41;10.82;;;4.38;;
21837;SDS011;11081;45.946;6.140;2023-09-30T08:12:09;11.25;;;4.50;;
21837;SDS011;11081;45.946;6.140;2023-09-30T08:14:37;10.30;;;4.60;;
21837;SDS011;11081;45.946;6.140;2023-09-30T08:17:05;12.85;;;4.68;;
21837;SDS011;11081;45.946;6.140;2023-09-30T08:19:33;8.73;;;4.25;;
21837;SDS011;11081;45.946;6.140;2023-09-30T08:22:01;12.80;;;4.55;;
21837;SDS011;11081;45.946;6.140;2023-09-30T08:24:29;10.77;;;4.15;;
21837;SDS011;11081;45.946;6.140;2023-09-30T08:26:58;10.48;;;4.40;;
21837;SDS011;11081;45.946;6.140;2023-09-30T08:29:27;15.48;;;4.65;;
21837;SDS011;11081;45.946;6.140;2023-09-30T08:31:55;11.20;;;4.65;;
21837;SDS011;11081;45.946;6.140;2023-09-30T08:34:23;12.45;;;4.65;;
21837;SDS011;11081;45.946;6.140;2023-09-30T08:36:50;8.60;;;4.05;;
21837;SDS011;11081;45.946;6.140;2023-09-30T08:39:18;10.65;;;4.05;;
21837;SDS011;11081;45.946;6.140;2023-09-30T08:41:46;11.43;;;4.35;;
21837;SDS011;11081;45.946;6.140;2023-09-30T08:44:16;11.27;;;4.32;;
21837;SDS011;11081;45.946;6.140;2023-09-30T08:46:44;10.50;;;4.22;;
21837;SDS011;11081;45.946;6.140;2023-09-30T08:49:13;12.25;;;4.32;;
21837;SDS011;11081;45.946;6.140;2023-09-30T08:51:43;10.70;;;4.68;;
21837;SDS011;11081;45.946;6.140;2023-09-30T08:54:11;11.27;;;4.25;;
21837;SDS011;11081;45.946;6.140;2023-09-30T08:56:39;8.60;;;4.00;;
21837;SDS011;11081;45.946;6.140;2023-09-30T08:59:09;9.93;;;4.97;;
21837;SDS011;11081;45.946;6.140;2023-09-30T09:01:40;8.75;;;4.00;;
21837;SDS011;11081;45.946;6.140;2023-09-30T09:04:08;10.13;;;4.25;;
21837;SDS011;11081;45.946;6.140;2023-09-30T09:06:36;11.65;;;4.45;;
21837;SDS011;11081;45.946;6.140;2023-09-30T09:09:13;12.75;;;5.03;;
21837;SDS011;11081;45.946;6.140;2023-09-30T09:11:43;10.65;;;4.25;;
21837;SDS011;11081;45.946;6.140;2023-09-30T09:14:11;14.05;;;4.53;;
21837;SDS011;11081;45.946;6.140;2023-09-30T09:16:52;11.02;;;4.35;;
21837;SDS011;11081;45.946;6.140;2023-09-30T09:19:21;12.55;;;4.15;;
21837;SDS011;11081;45.946;6.140;2023-09-30T09:21:53;13.98;;;5.28;;
21837;SDS011;11081;45.946;6.140;2023-09-30T09:24:29;11.77;;;4.63;;
21837;SDS011;11081;45.946;6.140;2023-09-30T09:27:05;11.35;;;4.45;;
21837;SDS011;11081;45.946;6.140;2023-09-30T09:29:34;12.52;;;4.03;;
21837;SDS011;11081;45.946;6.140;2023-09-30T09:32:10;12.23;;;4.55;;
21837;SDS011;11081;45.946;6.140;2023-09-30T09:34:39;11.60;;;4.10;;
21837;SDS011;11081;45.946;6.140;2023-09-30T09:37:14;12.98;;;4.78;;
21837;SDS011;11081;45.946;6.140;2023-09-30T09:39:50;10.05;;;4.20;;
21837;SDS011;11081;45.946;6.140;2023-09-30T09:42:25;11.18;;;4.28;;
21837;SDS011;11081;45.946;6.140;2023-09-30T09:44:55;11.43;;;3.90;;
21837;SDS011;11081;45.946;6.140;2023-09-30T09:47:26;11.00;;;4.30;;
21837;SDS011;11081;45.946;6.140;2023-09-30T09:49:55;11.27;;;3.88;;
21837;SDS011;11081;45.946;6.140;2023-09-30T09:52:25;10.48;;;4.00;;
21837;SDS011;11081;45.946;6.140;2023-09-30T09:54:54;6.63;;;3.35;;
21837;SDS011;11081;45.946;6.140;2023-09-30T09:57:24;9.70;;;3.90;;
21837;SDS011;11081;45.946;6.140;2023-09-30T09:59:55;9.85;;;3.78;;
21837;SDS011;11081;45.946;6.140;2023-09-30T10:02:27;11.50;;;3.80;;
21837;SDS011;11081;45.946;6.140;2023-09-30T10:04:57;9.40;;;4.05;;
21837;SDS011;11081;45.946;6.140;2023-09-30T10:07:28;10.98;;;3.63;;
21837;SDS011;11081;45.946;6.140;2023-09-30T10:10:05;8.38;;;3.47;;
21837;SDS011;11081;45.946;6.140;2023-09-30T10:12:40;10.80;;;3.90;;
21837;SDS011;11081;45.946;6.140;2023-09-30T10:18:05;9.80;;;3.80;;
21837;SDS011;11081;45.946;6.140;2023-09-30T10:20:40;10.02;;;3.60;;
21837;SDS011;11081;45.946;6.140;2023-09-30T10:23:21;11.80;;;3.17;;
21837;SDS011;11081;45.946;6.140;2023-09-30T10:25:52;8.02;;;3.58;;
21837;SDS011;11081;45.946;6.140;2023-09-30T10:28:44;8.27;;;3.25;;
21837;SDS011;11081;45.946;6.140;2023-09-30T10:31:13;9.65;;;3.65;;
21837;SDS011;11081;45.946;6.140;2023-09-30T10:36:47;12.15;;;4.18;;
21837;SDS011;11081;45.946;6.140;2023-09-30T10:39:52;8.02;;;3.20;;
21837;SDS011;11081;45.946;6.140;2023-09-30T10:48:35;8.02;;;3.50;;
21837;SDS011;11081;45.946;6.140;2023-09-30T10:51:12;7.50;;;3.38;;
21837;SDS011;11081;45.946;6.140;2023-09-30T10:53:48;9.75;;;3.22;;
21837;SDS011;11081;45.946;6.140;2023-09-30T10:56:18;10.85;;;3.55;;
21837;SDS011;11081;45.946;6.140;2023-09-30T10:58:48;7.80;;;3.33;;
21837;SDS011;11081;45.946;6.140;2023-09-30T11:01:17;10.68;;;3.28;;
21837;SDS011;11081;45.946;6.140;2023-09-30T11:03:47;10.07;;;3.55;;
21837;SDS011;11081;45.946;6.140;2023-09-30T11:06:20;7.45;;;3.05;;
21837;SDS011;11081;45.946;6.140;2023-09-30T11:08:51;8.00;;;3.45;;
21837;SDS011;11081;45.946;6.140;2023-09-30T11:11:31;6.05;;;3.00;;
21837;SDS011;11081;45.946;6.140;2023-09-30T11:14:00;11.23;;;4.22;;
21837;SDS011;11081;45.946;6.140;2023-09-30T11:16:28;8.85;;;3.58;;
21837;SDS011;11081;45.946;6.140;2023-09-30T11:18:57;8.70;;;3.88;;
21837;SDS011;11081;45.946;6.140;2023-09-30T11:21:27;19.85;;;4.60;;
21837;SDS011;11081;45.946;6.140;2023-09-30T11:23:56;14.30;;;4.90;;
21837;SDS011;11081;45.946;6.140;2023-09-30T11:26:29;13.93;;;4.18;;
21837;SDS011;11081;45.946;6.140;2023-09-30T11:29:04;9.32;;;3.45;;
21837;SDS011;11081;45.946;6.140;2023-09-30T11:31:34;8.82;;;3.67;;
21837;SDS011;11081;45.946;6.140;2023-09-30T11:34:05;9.82;;;3.92;;
21837;SDS011;11081;45.946;6.140;2023-09-30T11:36:35;8.70;;;3.38;;
21837;SDS011;11081;45.946;6.140;2023-09-30T11:39:06;11.45;;;3.92;;
21837;SDS011;11081;45.946;6.140;2023-09-30T11:41:36;10.45;;;3.78;;
21837;SDS011;11081;45.946;6.140;2023-09-30T11:44:06;8.38;;;3.80;;
21837;SDS011;11081;45.946;6.140;2023-09-30T11:46:49;7.47;;;2.88;;
21837;SDS011;11081;45.946;6.140;2023-09-30T11:49:24;14.27;;;4.28;;
21837;SDS011;11081;45.946;6.140;2023-09-30T11:51:55;10.02;;;3.45;;
21837;SDS011;11081;45.946;6.140;2023-09-30T11:54:29;8.75;;;3.35;;
21837;SDS011;11081;45.946;6.140;2023-09-30T11:56:59;11.10;;;3.70;;
21837;SDS011;11081;45.946;6.140;2023-09-30T11:59:28;9.38;;;3.45;;
21837;SDS011;11081;45.946;6.140;2023-09-30T12:01:56;7.28;;;3.35;;
21837;SDS011;11081;45.946;6.140;2023-09-30T12:04:39;7.80;;;3.22;;
21837;SDS011;11081;45.946;6.140;2023-09-30T12:07:09;8.10;;;3.42;;
21837;SDS011;11081;45.946;6.140;2023-09-30T12:09:36;6.38;;;3.17;;
21837;SDS011;11081;45.946;6.140;2023-09-30T12:12:06;8.18;;;3.33;;
21837;SDS011;11081;45.946;6.140;2023-09-30T12:14:37;10.32;;;3.65;;
21837;SDS011;11081;45.946;6.140;2023-09-30T12:17:05;8.02;;;3.85;;
21837;SDS011;11081;45.946;6.140;2023-09-30T12:19:38;9.55;;;3.60;;
21837;SDS011;11081;45.946;6.140;2023-09-30T12:22:06;7.47;;;3.28;;
21837;SDS011;11081;45.946;6.140;2023-09-30T12:24:35;10.20;;;3.92;;
21837;SDS011;11081;45.946;6.140;2023-09-30T12:27:03;10.20;;;3.80;;
21837;SDS011;11081;45.946;6.140;2023-09-30T12:29:31;10.80;;;3.88;;
21837;SDS011;11081;45.946;6.140;2023-09-30T12:31:59;11.05;;;3.42;;
21837;SDS011;11081;45.946;6.140;2023-09-30T12:34:28;9.02;;;3.83;;
21837;SDS011;11081;45.946;6.140;2023-09-30T12:36:59;8.20;;;3.70;;
21837;SDS011;11081;45.946;6.140;2023-09-30T12:39:27;8.68;;;3.50;;
21837;SDS011;11081;45.946;6.140;2023-09-30T12:42:01;8.95;;;4.25;;
21837;SDS011;11081;45.946;6.140;2023-09-30T12:44:35;9.45;;;4.07;;
21837;SDS011;11081;45.946;6.140;2023-09-30T12:47:03;9.80;;;3.72;;
21837;SDS011;11081;45.946;6.140;2023-09-30T12:49:31;10.57;;;3.83;;
21837;SDS011;11081;45.946;6.140;2023-09-30T12:51:59;7.05;;;3.60;;
21837;SDS011;11081;45.946;6.140;2023-09-30T12:54:28;9.15;;;3.70;;
21837;SDS011;11081;45.946;6.140;2023-09-30T12:56:56;8.00;;;3.88;;
21837;SDS011;11081;45.946;6.140;2023-09-30T12:59:25;9.27;;;4.18;;
21837;SDS011;11081;45.946;6.140;2023-09-30T13:01:53;9.13;;;3.90;;
21837;SDS011;11081;45.946;6.140;2023-09-30T13:04:23;7.28;;;3.55;;
21837;SDS011;11081;45.946;6.140;2023-09-30T13:06:51;12.13;;;3.90;;
21837;SDS011;11081;45.946;6.140;2023-09-30T13:09:20;8.07;;;3.50;;
21837;SDS011;11081;45.946;6.140;2023-09-30T13:11:48;9.02;;;4.20;;
21837;SDS011;11081;45.946;6.140;2023-09-30T13:14:16;7.50;;;3.67;;
21837;SDS011;11081;45.946;6.140;2023-09-30T13:16:46;9.63;;;4.07;;
21837;SDS011;11081;45.946;6.140;2023-09-30T13:19:14;9.25;;;3.83;;
21837;SDS011;11081;45.946;6.140;2023-09-30T13:21:42;12.88;;;4.32;;
21837;SDS011;11081;45.946;6.140;2023-09-30T13:24:10;7.97;;;3.75;;
21837;SDS011;11081;45.946;6.140;2023-09-30T13:26:38;9.27;;;3.75;;
21837;SDS011;11081;45.946;6.140;2023-09-30T13:29:06;10.77;;;4.22;;
21837;SDS011;11081;45.946;6.140;2023-09-30T13:31:36;10.32;;;4.40;;
21837;SDS011;11081;45.946;6.140;2023-09-30T13:34:05;11.35;;;4.15;;
21837;SDS011;11081;45.946;6.140;2023-09-30T13:36:33;8.18;;;3.85;;
21837;SDS011;11081;45.946;6.140;2023-09-30T13:39:02;8.68;;;3.38;;
21837;SDS011;11081;45.946;6.140;2023-09-30T13:41:33;7.15;;;3.90;;
21837;SDS011;11081;45.946;6.140;2023-09-30T13:44:02;11.43;;;4.03;;
21837;SDS011;11081;45.946;6.140;2023-09-30T13:46:30;10.57;;;3.60;;
21837;SDS011;11081;45.946;6.140;2023-09-30T13:48:58;7.80;;;3.75;;
21837;SDS011;11081;45.946;6.140;2023-09-30T13:51:27;8.55;;;3.92;;
21837;SDS011;11081;45.946;6.140;2023-09-30T13:53:55;8.68;;;4.10;;
21837;SDS011;11081;45.946;6.140;2023-09-30T13:56:24;8.95;;;3.95;;
21837;SDS011;11081;45.946;6.140;2023-09-30T13:58:54;7.25;;;3.63;;
21837;SDS011;11081;45.946;6.140;2023-09-30T14:01:24;8.38;;;3.53;;
21837;SDS011;11081;45.946;6.140;2023-09-30T14:03:52;9.82;;;3.90;;
21837;SDS011;11081;45.946;6.140;2023-09-30T14:06:22;7.05;;;3.30;;
21837;SDS011;11081;45.946;6.140;2023-09-30T14:08:51;11.65;;;4.07;;
21837;SDS011;11081;45.946;6.140;2023-09-30T14:11:19;10.82;;;4.20;;
21837;SDS011;11081;45.946;6.140;2023-09-30T14:13:47;9.48;;;3.58;;
21837;SDS011;11081;45.946;6.140;2023-09-30T14:16:16;10.00;;;4.20;;
21837;SDS011;11081;45.946;6.140;2023-09-30T14:18:44;7.35;;;3.95;;
21837;SDS011;11081;45.946;6.140;2023-09-30T14:21:12;8.60;;;4.32;;
21837;SDS011;11081;45.946;6.140;2023-09-30T14:23:40;10.52;;;4.07;;
21837;SDS011;11081;45.946;6.140;2023-09-30T14:26:09;12.05;;;4.50;;
21837;SDS011;11081;45.946;6.140;2023-09-30T14:28:37;10.38;;;3.95;;
21837;SDS011;11081;45.946;6.140;2023-09-30T14:31:05;9.20;;;4.50;;
21837;SDS011;11081;45.946;6.140;2023-09-30T14:33:34;11.80;;;4.47;;
21837;SDS011;11081;45.946;6.140;2023-09-30T14:36:02;8.25;;;3.65;;
21837;SDS011;11081;45.946;6.140;2023-09-30T14:38:32;14.40;;;4.68;;
21837;SDS011;11081;45.946;6.140;2023-09-30T14:41:00;17.58;;;4.53;;
21837;SDS011;11081;45.946;6.140;2023-09-30T14:43:29;10.55;;;4.15;;
21837;SDS011;11081;45.946;6.140;2023-09-30T14:46:00;14.77;;;4.88;;
21837;SDS011;11081;45.946;6.140;2023-09-30T14:48:29;12.30;;;4.78;;
21837;SDS011;11081;45.946;6.140;2023-09-30T14:50:57;9.00;;;4.00;;
21837;SDS011;11081;45.946;6.140;2023-09-30T14:53:25;11.20;;;4.85;;
21837;SDS011;11081;45.946;6.140;2023-09-30T14:55:53;13.10;;;4.40;;
21837;SDS011;11081;45.946;6.140;2023-09-30T14:58:20;8.18;;;3.97;;
21837;SDS011;11081;45.946;6.140;2023-09-30T15:00:50;9.75;;;4.18;;
21837;SDS011;11081;45.946;6.140;2023-09-30T15:03:18;6.70;;;3.55;;
21837;SDS011;11081;45.946;6.140;2023-09-30T15:05:47;11.20;;;4.78;;